createdAt,value
2022-09-10T00:01:00.228Z,3.00
2022-09-10T00:03:27.497Z,2.70
2022-09-10T00:05:54.318Z,2.90
2022-09-10T00:08:21.998Z,3.10
2022-09-10T00:10:50.582Z,4.10
2022-09-10T00:13:21.712Z,3.50
2022-09-10T00:15:51.144Z,4.30
2022-09-10T00:18:19.493Z,5.50
2022-09-10T00:20:48.142Z,3.70
2022-09-10T00:23:16.175Z,2.70
2022-09-10T00:25:43.079Z,2.30
2022-09-10T00:28:09.952Z,2.90
2022-09-10T00:30:41.395Z,3.20
2022-09-10T00:33:08.521Z,4.00
2022-09-10T00:35:36.000Z,6.70
2022-09-10T00:38:03.478Z,2.70
2022-09-10T00:40:31.711Z,3.10
2022-09-10T00:42:58.773Z,3.30
2022-09-10T00:45:30.379Z,4.30
2022-09-10T00:48:03.558Z,2.20
2022-09-10T00:50:41.140Z,1.90
2022-09-10T00:53:09.693Z,3.00
2022-09-10T00:55:37.766Z,3.00
2022-09-10T00:58:05.983Z,4.00
2022-09-10T01:00:32.919Z,3.50
2022-09-10T01:02:59.805Z,4.10
2022-09-10T01:05:26.977Z,2.20
2022-09-10T01:07:53.981Z,3.30
2022-09-10T01:10:24.883Z,2.90
2022-09-10T01:13:12.124Z,3.00
2022-09-10T01:16:05.688Z,4.30
2022-09-10T01:19:00.041Z,3.30
2022-09-10T01:21:35.289Z,3.20
2022-09-10T01:24:29.971Z,3.30
2022-09-10T01:27:28.673Z,6.50
2022-09-10T01:30:06.259Z,2.90
2022-09-10T01:32:44.979Z,3.50
2022-09-10T01:35:28.408Z,5.70
2022-09-10T01:37:57.098Z,3.20
2022-09-10T01:40:29.984Z,1.50
2022-09-10T01:43:09.108Z,2.10
2022-09-10T01:46:25.582Z,1.30
2022-09-10T01:49:08.395Z,2.40
2022-09-10T01:51:43.671Z,2.00
2022-09-10T01:54:26.591Z,2.70
2022-09-10T01:57:28.563Z,3.20
2022-09-10T02:00:12.545Z,3.10
2022-09-10T02:02:53.009Z,4.50
2022-09-10T02:05:21.502Z,3.30
2022-09-10T02:10:21.719Z,3.40
2022-09-10T02:12:49.040Z,2.70
2022-09-10T02:15:34.628Z,2.60
2022-09-10T02:18:32.462Z,2.20
2022-09-10T02:20:59.458Z,3.00
2022-09-10T02:23:37.413Z,3.20
2022-09-10T02:26:04.384Z,3.90
2022-09-10T02:28:31.490Z,2.50
2022-09-10T02:30:58.495Z,2.20
2022-09-10T02:33:26.656Z,2.70
2022-09-10T02:35:54.641Z,2.40
2022-09-10T02:38:21.573Z,2.90
2022-09-10T02:40:51.656Z,4.40
2022-09-10T02:43:18.629Z,1.50
2022-09-10T02:45:45.691Z,1.40
2022-09-10T02:48:13.276Z,3.70
2022-09-10T02:50:41.921Z,1.60
2022-09-10T02:53:09.560Z,2.50
2022-09-10T02:55:36.635Z,2.40
2022-09-10T02:58:03.581Z,3.60
2022-09-10T03:00:32.697Z,2.30
2022-09-10T03:03:03.065Z,3.40
2022-09-10T03:05:30.771Z,1.80
2022-09-10T03:07:57.921Z,1.60
2022-09-10T03:10:25.164Z,3.40
2022-09-10T03:12:52.647Z,5.20
2022-09-10T03:15:20.908Z,3.30
2022-09-10T03:17:47.849Z,2.90
2022-09-10T03:20:14.999Z,3.40
2022-09-10T03:22:41.961Z,4.60
2022-09-10T03:25:11.983Z,2.50
2022-09-10T03:27:39.543Z,3.10
2022-09-10T03:30:08.908Z,2.40
2022-09-10T03:32:35.874Z,2.10
2022-09-10T03:35:04.246Z,3.90
2022-09-10T03:37:31.734Z,3.00
2022-09-10T03:39:59.033Z,2.20
2022-09-10T03:42:25.995Z,2.60
2022-09-10T03:44:53.465Z,2.40
2022-09-10T03:47:20.301Z,2.10
2022-09-10T03:49:47.411Z,2.00
2022-09-10T03:52:14.485Z,1.90
2022-09-10T03:54:41.742Z,2.30
2022-09-10T03:57:08.795Z,6.10
2022-09-10T03:59:35.834Z,2.80
2022-09-10T04:02:03.330Z,4.20
2022-09-10T04:04:32.086Z,2.70
2022-09-10T04:06:59.198Z,4.90
2022-09-10T04:09:26.105Z,6.40
2022-09-10T04:11:53.123Z,5.60
2022-09-10T04:14:22.386Z,4.20
2022-09-10T04:16:49.752Z,4.10
2022-09-10T04:19:18.469Z,4.20
2022-09-10T04:21:46.852Z,4.00
2022-09-10T04:24:13.886Z,2.60
2022-09-10T04:26:42.101Z,2.70
2022-09-10T04:29:09.411Z,3.80
2022-09-10T04:31:36.508Z,3.80
2022-09-10T04:34:10.814Z,3.50
2022-09-10T04:36:37.821Z,4.00
2022-09-10T04:39:04.749Z,6.00
2022-09-10T04:41:31.953Z,10.90
2022-09-10T04:43:59.175Z,9.00
2022-09-10T04:46:26.347Z,6.40
2022-09-10T04:48:55.012Z,3.80
2022-09-10T04:51:24.204Z,3.40
2022-09-10T04:53:54.044Z,2.30
2022-09-10T04:56:25.261Z,3.10
2022-09-10T04:58:52.308Z,3.60
2022-09-10T05:01:19.933Z,2.00
2022-09-10T05:03:50.496Z,2.10
2022-09-10T05:06:19.080Z,2.30
2022-09-10T05:08:47.171Z,4.00
2022-09-10T05:11:14.204Z,5.60
2022-09-10T05:13:41.870Z,8.00
2022-09-10T05:16:09.242Z,8.70
2022-09-10T05:18:36.313Z,6.40
2022-09-10T05:21:05.562Z,3.20
2022-09-10T05:23:33.738Z,3.00
2022-09-10T05:26:01.538Z,6.00
2022-09-10T05:28:28.671Z,4.80
2022-09-10T05:30:55.777Z,3.20
2022-09-10T05:33:25.001Z,4.70
2022-09-10T05:35:52.152Z,3.10
2022-09-10T05:38:20.389Z,3.40
2022-09-10T05:40:48.422Z,4.50
2022-09-10T05:43:15.552Z,2.10
2022-09-10T05:45:44.240Z,3.80
2022-09-10T05:48:11.274Z,3.70
2022-09-10T05:50:38.774Z,2.80
2022-09-10T05:53:05.984Z,2.40
2022-09-10T05:55:33.421Z,1.50
2022-09-10T05:58:00.762Z,2.20
2022-09-10T06:00:27.890Z,2.50
2022-09-10T06:02:59.763Z,3.80
2022-09-10T06:05:31.073Z,3.40
2022-09-10T06:07:58.097Z,3.90
2022-09-10T06:10:25.211Z,4.00
2022-09-10T06:12:52.219Z,3.50
2022-09-10T06:15:20.164Z,4.20
2022-09-10T06:17:48.742Z,9.20
2022-09-10T06:20:16.509Z,7.20
2022-09-10T06:22:44.797Z,4.20
2022-09-10T06:25:12.703Z,5.50
2022-09-10T06:27:41.036Z,4.10
2022-09-10T06:30:08.930Z,4.80
2022-09-10T06:32:39.563Z,4.00
2022-09-10T06:35:09.341Z,2.90
2022-09-10T06:37:37.033Z,4.10
2022-09-10T06:40:07.418Z,4.70
2022-09-10T06:42:35.089Z,3.30
2022-09-10T06:45:14.020Z,4.40
2022-09-10T06:50:56.261Z,4.40
2022-09-10T06:53:28.770Z,4.30
2022-09-10T06:55:56.174Z,3.70
2022-09-10T06:58:24.794Z,2.70
2022-09-10T07:00:52.386Z,3.00
2022-09-10T07:03:21.483Z,6.60
2022-09-10T07:05:49.118Z,4.80
2022-09-10T07:08:16.926Z,5.80
2022-09-10T07:10:45.062Z,5.80
2022-09-10T07:13:15.741Z,5.30
2022-09-10T07:15:46.920Z,6.00
2022-09-10T07:18:14.654Z,12.40
2022-09-10T07:20:45.850Z,13.10
2022-09-10T07:23:13.746Z,6.00
2022-09-10T07:25:42.138Z,6.60
2022-09-10T07:28:18.228Z,6.90
2022-09-10T07:30:47.656Z,6.80
2022-09-10T07:33:15.609Z,7.70
2022-09-10T07:35:44.358Z,10.80
2022-09-10T07:38:14.275Z,9.50
2022-09-10T07:40:43.969Z,11.60
2022-09-10T07:43:11.132Z,9.70
2022-09-10T07:45:40.552Z,13.90
2022-09-10T07:48:08.776Z,17.30
2022-09-10T07:50:38.527Z,6.00
2022-09-10T07:53:06.437Z,6.60
2022-09-10T07:55:34.365Z,5.60
2022-09-10T07:58:01.606Z,6.10
2022-09-10T08:00:31.095Z,7.10
2022-09-10T08:02:59.084Z,7.70
2022-09-10T08:05:27.754Z,6.90
2022-09-10T08:07:55.343Z,9.50
2022-09-10T08:10:22.988Z,7.70
2022-09-10T08:12:50.305Z,8.80
2022-09-10T08:15:18.412Z,8.30
2022-09-10T08:17:45.973Z,10.00
2022-09-10T08:20:13.766Z,10.40
2022-09-10T08:22:43.144Z,8.50
2022-09-10T08:25:11.059Z,11.20
2022-09-10T08:27:38.781Z,15.30
2022-09-10T08:30:08.681Z,14.50
2022-09-10T08:32:37.167Z,12.10
2022-09-10T08:35:06.016Z,7.30
2022-09-10T08:37:34.435Z,5.00
2022-09-10T08:40:02.089Z,3.80
2022-09-10T08:42:32.987Z,5.50
2022-09-10T08:45:22.064Z,4.20
2022-09-10T08:47:56.225Z,3.90
2022-09-10T08:50:36.288Z,3.10
2022-09-10T08:53:17.245Z,4.70
2022-09-10T08:55:48.364Z,6.30
2022-09-10T08:58:25.299Z,6.30
2022-09-10T09:00:57.881Z,7.40
2022-09-10T09:03:32.861Z,10.60
2022-09-10T09:06:02.019Z,9.20
2022-09-10T09:08:35.830Z,10.50
2022-09-10T09:11:17.772Z,11.70
2022-09-10T09:13:56.390Z,10.40
2022-09-10T09:16:27.981Z,10.70
2022-09-10T09:19:01.335Z,14.00
2022-09-10T09:22:03.404Z,14.30
2022-09-10T09:24:54.435Z,12.40
2022-09-10T09:27:21.666Z,16.30
2022-09-10T09:30:01.615Z,12.50
2022-09-10T09:32:30.007Z,15.20
2022-09-10T09:35:07.138Z,17.10
2022-09-10T09:37:35.247Z,15.50
2022-09-10T09:40:15.275Z,19.00
2022-09-10T09:43:04.056Z,12.40
2022-09-10T09:45:38.997Z,19.70
2022-09-10T09:48:07.269Z,18.80
2022-09-10T09:50:35.363Z,16.70
2022-09-10T09:53:02.284Z,14.10
2022-09-10T09:55:41.004Z,11.90
2022-09-10T09:58:30.183Z,12.60
2022-09-10T10:01:03.563Z,13.90
2022-09-10T10:06:02.519Z,9.10
2022-09-10T10:08:34.243Z,8.00
2022-09-10T10:11:01.177Z,7.50
2022-09-10T10:13:42.331Z,10.80
2022-09-10T10:16:33.987Z,12.20
2022-09-10T10:19:00.923Z,8.30
2022-09-10T10:21:31.972Z,11.50
2022-09-10T10:23:59.221Z,11.60
2022-09-10T10:26:35.685Z,10.80
2022-09-10T10:29:26.696Z,11.20
2022-09-10T10:31:53.946Z,15.60
2022-09-10T10:34:45.444Z,18.10
2022-09-10T10:37:45.792Z,16.30
2022-09-10T10:40:26.652Z,19.70
2022-09-10T10:43:21.004Z,11.20
2022-09-10T10:46:07.669Z,12.70
2022-09-10T10:48:47.469Z,14.90
2022-09-10T10:51:24.282Z,10.70
2022-09-10T10:54:03.156Z,12.30
2022-09-10T10:56:37.422Z,13.70
2022-09-10T10:59:23.777Z,10.00
2022-09-10T11:01:54.665Z,9.30
2022-09-10T11:04:42.429Z,12.10
2022-09-10T11:07:28.905Z,10.20
2022-09-10T11:10:00.759Z,10.10
2022-09-10T11:12:30.260Z,12.10
2022-09-10T11:15:13.593Z,13.90
2022-09-10T11:17:46.627Z,15.00
2022-09-10T11:20:28.547Z,12.30
2022-09-10T11:23:21.732Z,11.60
2022-09-10T11:26:17.812Z,12.70
2022-09-10T11:29:08.032Z,12.30
2022-09-10T11:31:37.072Z,15.00
2022-09-10T11:34:07.025Z,10.60
2022-09-10T11:36:58.096Z,12.90
2022-09-10T11:39:38.976Z,12.80
2022-09-10T11:42:17.693Z,11.90
2022-09-10T11:45:06.831Z,13.40
2022-09-10T11:47:37.519Z,11.10
2022-09-10T11:50:11.119Z,11.90
2022-09-10T11:52:38.296Z,14.90
2022-09-10T11:55:08.613Z,13.90
2022-09-10T11:58:03.743Z,10.50
2022-09-10T12:00:31.202Z,9.40
2022-09-10T12:03:30.555Z,13.30
2022-09-10T12:06:10.760Z,15.30
2022-09-10T12:08:52.761Z,10.00
2022-09-10T12:11:48.112Z,9.00
2022-09-10T12:14:19.780Z,10.00
2022-09-10T12:16:50.497Z,12.10
2022-09-10T12:19:29.998Z,11.40
2022-09-10T12:21:59.504Z,10.40
2022-09-10T12:24:36.652Z,6.70
2022-09-10T12:27:05.529Z,8.60
2022-09-10T12:29:42.472Z,9.00
2022-09-10T12:32:15.626Z,9.00
2022-09-10T12:34:42.618Z,7.60
2022-09-10T12:37:28.030Z,6.10
2022-09-10T12:40:40.382Z,5.40
2022-09-10T12:43:43.687Z,7.00
2022-09-10T12:46:10.771Z,7.10
2022-09-10T12:48:56.409Z,5.20
2022-09-10T12:51:35.540Z,7.90
2022-09-10T12:54:27.254Z,7.20
2022-09-10T12:56:54.107Z,8.00
2022-09-10T12:59:30.554Z,6.10
2022-09-10T13:01:57.609Z,5.10
2022-09-10T13:04:28.871Z,6.20
2022-09-10T13:07:06.381Z,6.10
2022-09-10T13:09:36.080Z,3.70
2022-09-10T13:12:05.788Z,10.10
2022-09-10T13:14:40.512Z,10.50
2022-09-10T13:17:30.119Z,9.70
2022-09-10T13:19:57.242Z,5.50
2022-09-10T13:22:31.374Z,6.70
2022-09-10T13:25:35.143Z,5.30
2022-09-10T13:28:02.821Z,6.30
2022-09-10T13:30:29.764Z,5.00
2022-09-10T13:33:01.967Z,5.70
2022-09-10T13:35:41.464Z,7.60
2022-09-10T13:38:47.431Z,8.30
2022-09-10T13:41:37.263Z,3.10
2022-09-10T13:44:15.892Z,6.00
2022-09-10T13:46:48.291Z,6.80
2022-09-10T13:49:53.034Z,4.50
2022-09-10T13:52:22.743Z,3.30
2022-09-10T13:54:51.721Z,4.70
2022-09-10T13:57:26.801Z,4.90
2022-09-10T13:59:59.823Z,6.50
2022-09-10T14:02:45.798Z,5.70
2022-09-10T14:05:34.405Z,4.90
2022-09-10T14:08:17.880Z,4.60
2022-09-10T14:10:53.016Z,4.80
2022-09-10T14:13:23.770Z,5.10
2022-09-10T14:15:51.441Z,4.50
2022-09-10T14:18:18.830Z,4.60
2022-09-10T14:20:45.862Z,3.50
2022-09-10T14:23:16.370Z,5.20
2022-09-10T14:25:45.216Z,4.00
2022-09-10T14:28:12.132Z,2.70
2022-09-10T14:30:39.228Z,4.50
2022-09-10T14:33:34.900Z,3.10
2022-09-10T14:36:30.220Z,2.70
2022-09-10T14:39:00.123Z,4.90
2022-09-10T14:41:28.756Z,2.90
2022-09-10T14:44:15.502Z,4.10
2022-09-10T14:47:13.186Z,2.70
2022-09-10T14:49:41.663Z,2.50
2022-09-10T14:52:08.749Z,5.00
2022-09-10T14:54:35.870Z,4.10
2022-09-10T14:57:04.653Z,2.80
2022-09-10T14:59:33.197Z,2.20
2022-09-10T15:02:01.201Z,3.40
2022-09-10T15:04:30.311Z,4.30
2022-09-10T15:06:58.799Z,2.90
2022-09-10T15:09:27.258Z,3.50
2022-09-10T15:12:05.811Z,3.20
2022-09-10T15:14:33.849Z,5.40
2022-09-10T15:17:00.792Z,2.90
2022-09-10T15:19:28.252Z,2.70
2022-09-10T15:21:56.537Z,4.30
2022-09-10T15:24:23.931Z,3.50
2022-09-10T15:26:51.029Z,5.90
2022-09-10T15:29:18.183Z,5.80
2022-09-10T15:31:45.331Z,3.40
2022-09-10T15:34:12.382Z,3.90
2022-09-10T15:36:40.111Z,4.60
2022-09-10T15:39:07.756Z,4.40
2022-09-10T15:41:34.646Z,4.60
2022-09-10T15:44:02.103Z,6.40
2022-09-10T15:46:29.762Z,4.50
2022-09-10T15:48:58.834Z,4.80
2022-09-10T15:51:26.040Z,4.70
2022-09-10T15:53:54.286Z,5.00
2022-09-10T15:56:22.023Z,4.20
2022-09-10T15:58:55.207Z,4.90
2022-09-10T16:01:22.939Z,2.70
2022-09-10T16:03:57.395Z,3.60
2022-09-10T16:06:27.530Z,3.80
2022-09-10T16:09:01.002Z,4.50
2022-09-10T16:11:30.429Z,3.60
2022-09-10T16:14:02.177Z,4.80
2022-09-10T16:16:31.731Z,5.20
2022-09-10T16:18:58.658Z,6.20
2022-09-10T16:21:27.857Z,5.10
2022-09-10T16:23:55.921Z,3.50
2022-09-10T16:26:25.156Z,5.00
2022-09-10T16:28:53.297Z,8.00
2022-09-10T16:31:24.603Z,6.50
2022-09-10T16:33:55.027Z,6.00
2022-09-10T16:36:23.844Z,4.70
2022-09-10T16:38:55.425Z,6.10
2022-09-10T16:41:23.384Z,7.00
2022-09-10T16:43:50.711Z,10.00
2022-09-10T16:46:17.816Z,4.80
2022-09-10T16:48:46.313Z,6.70
2022-09-10T16:51:17.304Z,8.50
2022-09-10T16:53:45.281Z,7.90
2022-09-10T16:56:14.525Z,8.00
2022-09-10T16:58:42.019Z,5.70
2022-09-10T17:01:09.695Z,9.10
2022-09-10T17:03:40.595Z,9.20
2022-09-10T17:06:16.613Z,9.20
2022-09-10T17:08:45.478Z,12.40
2022-09-10T17:11:14.572Z,7.80
2022-09-10T17:13:41.739Z,8.70
2022-09-10T17:16:12.795Z,8.20
2022-09-10T17:18:39.949Z,12.40
2022-09-10T17:21:09.667Z,12.50
2022-09-10T17:23:36.773Z,6.80
2022-09-10T17:26:07.902Z,10.60
2022-09-10T17:28:36.199Z,8.10
2022-09-10T17:31:03.259Z,11.40
2022-09-10T17:33:30.321Z,6.50
2022-09-10T17:35:58.059Z,8.60
2022-09-10T17:38:25.406Z,8.10
2022-09-10T17:41:01.490Z,8.20
2022-09-10T17:43:29.537Z,8.60
2022-09-10T17:45:56.480Z,10.00
2022-09-10T17:48:27.652Z,6.20
2022-09-10T17:50:55.290Z,6.60
2022-09-10T17:53:22.199Z,8.00
2022-09-10T17:55:49.286Z,10.40
2022-09-10T17:58:17.043Z,9.60
2022-09-10T18:00:48.833Z,6.90
2022-09-10T18:14:16.880Z,6.90
2022-09-10T18:16:45.037Z,7.60
2022-09-10T18:19:15.458Z,8.90
2022-09-10T18:21:43.967Z,8.30
2022-09-10T18:24:18.496Z,6.10
2022-09-10T18:26:46.739Z,7.80
2022-09-10T18:29:21.880Z,7.40
2022-09-10T18:31:51.280Z,7.10
2022-09-10T18:34:23.349Z,6.90
2022-09-10T18:36:53.826Z,4.10
2022-09-10T18:39:21.483Z,7.00
2022-09-10T18:41:48.491Z,7.60
2022-09-10T18:44:21.264Z,8.60
2022-09-10T18:46:49.332Z,6.80
2022-09-10T18:49:20.977Z,6.60
2022-09-10T18:51:48.761Z,6.30
2022-09-10T18:54:16.013Z,9.50
2022-09-10T18:56:46.541Z,4.80
2022-09-10T18:59:16.006Z,5.80
2022-09-10T19:01:45.040Z,5.50
2022-09-10T19:04:14.331Z,6.60
2022-09-10T19:06:43.131Z,5.40
2022-09-10T19:09:11.706Z,10.10
2022-09-10T19:11:40.191Z,5.30
2022-09-10T19:14:19.418Z,5.60
2022-09-10T19:16:47.621Z,3.10
2022-09-10T19:19:18.249Z,4.50
2022-09-10T19:21:49.981Z,6.60
2022-09-10T19:24:17.470Z,6.40
2022-09-10T19:26:45.409Z,4.60
2022-09-10T19:29:16.457Z,4.30
2022-09-10T19:31:44.132Z,5.60
2022-09-10T19:34:11.668Z,2.70
2022-09-10T19:36:39.748Z,4.30
2022-09-10T19:39:08.838Z,2.80
2022-09-10T19:41:38.546Z,3.30
2022-09-10T19:44:06.822Z,3.90
2022-09-10T19:46:36.184Z,2.50
2022-09-10T19:49:04.806Z,3.60
2022-09-10T19:51:33.561Z,2.50
2022-09-10T19:54:00.846Z,3.10
2022-09-10T19:56:32.901Z,1.60
2022-09-10T19:59:01.951Z,2.80
2022-09-10T20:01:30.923Z,3.00
2022-09-10T20:04:01.835Z,1.90
2022-09-10T20:06:30.373Z,2.30
2022-09-10T20:08:57.364Z,1.20
2022-09-10T20:11:27.064Z,0.60
2022-09-10T20:13:56.288Z,1.50
2022-09-10T20:16:24.509Z,0.50
2022-09-10T20:18:51.593Z,0.50
2022-09-10T20:21:21.475Z,1.50
2022-09-10T20:23:50.394Z,1.10
2022-09-10T20:26:24.820Z,0.70
2022-09-10T20:28:55.129Z,1.10
2022-09-10T20:31:22.808Z,0.70
2022-09-10T20:33:53.743Z,2.90
2022-09-10T20:36:21.407Z,0.70
2022-09-10T20:38:49.071Z,0.70
2022-09-10T20:41:16.082Z,0.60
2022-09-10T20:43:43.368Z,0.70
2022-09-10T20:46:15.450Z,2.40
2022-09-10T20:48:48.310Z,0.70
2022-09-10T20:51:17.417Z,0.90
2022-09-10T20:53:44.778Z,0.50
2022-09-10T20:56:18.456Z,0.50
2022-09-10T20:58:46.139Z,0.80
2022-09-10T21:01:14.348Z,0.80
2022-09-10T21:03:41.580Z,0.50
2022-09-10T21:06:12.906Z,0.50
2022-09-10T21:08:41.381Z,1.20
2022-09-10T21:11:11.833Z,0.70
2022-09-10T21:13:45.486Z,1.00
2022-09-10T21:16:17.262Z,2.20
2022-09-10T21:18:54.724Z,0.90
2022-09-10T21:21:24.753Z,0.60
2022-09-10T21:23:55.995Z,0.50
2022-09-10T21:26:25.330Z,0.40
2022-09-10T21:29:01.991Z,1.10
2022-09-10T21:31:29.744Z,0.60
2022-09-10T21:34:02.456Z,0.40
2022-09-10T21:36:31.564Z,0.60
2022-09-10T21:38:59.798Z,0.50
2022-09-10T21:41:39.067Z,0.40
2022-09-10T21:44:22.583Z,2.60
2022-09-10T21:46:49.379Z,0.80
2022-09-10T21:49:16.576Z,0.40
2022-09-10T21:51:43.540Z,0.70
2022-09-10T21:54:16.500Z,0.30
2022-09-10T21:56:43.295Z,0.30
2022-09-10T21:59:11.838Z,0.30
2022-09-10T22:01:39.985Z,0.40
2022-09-10T22:04:07.025Z,0.30
2022-09-10T22:06:34.920Z,0.20
2022-09-10T22:09:06.979Z,0.30
2022-09-10T22:11:36.143Z,0.20
2022-09-10T22:14:13.619Z,0.30
2022-09-10T22:16:40.311Z,0.80
2022-09-10T22:19:09.245Z,0.20
2022-09-10T22:21:37.788Z,0.40
2022-09-10T22:24:05.880Z,2.10
2022-09-10T22:26:32.892Z,2.40
2022-09-10T22:29:00.364Z,0.30
2022-09-10T22:31:28.844Z,0.30
2022-09-10T22:33:57.640Z,0.30
2022-09-10T22:36:28.364Z,0.30
2022-09-10T22:39:03.187Z,1.50
2022-09-10T22:41:33.487Z,0.20
2022-09-10T22:44:01.077Z,0.20
2022-09-10T22:46:28.805Z,0.20
2022-09-10T22:48:55.791Z,0.10
2022-09-10T22:51:28.054Z,0.20
2022-09-10T22:53:55.617Z,0.20
2022-09-10T22:56:24.301Z,0.20
2022-09-10T22:58:51.660Z,0.90
2022-09-10T23:01:20.310Z,0.60
2022-09-10T23:03:47.945Z,0.20
2022-09-10T23:06:17.117Z,0.60
2022-09-10T23:08:46.240Z,0.20
2022-09-10T23:11:20.516Z,0.30
2022-09-10T23:13:49.403Z,3.30
2022-09-10T23:16:24.904Z,0.20
2022-09-10T23:18:54.234Z,0.10
2022-09-10T23:21:23.302Z,0.30
2022-09-10T23:23:51.824Z,0.50
2022-09-10T23:26:19.181Z,0.30
2022-09-10T23:28:46.222Z,0.20
2022-09-10T23:31:24.194Z,0.20
2022-09-10T23:33:57.718Z,0.20
2022-09-10T23:36:26.213Z,0.40
2022-09-10T23:38:52.947Z,0.30
2022-09-10T23:41:21.229Z,0.20
2022-09-10T23:43:48.376Z,0.60
2022-09-10T23:46:15.786Z,0.30
2022-09-10T23:48:42.880Z,0.30
2022-09-10T23:51:13.204Z,0.40
2022-09-10T23:53:40.561Z,0.30
2022-09-10T23:56:07.993Z,0.30
2022-09-10T23:58:34.864Z,0.40
